HPV weather

Princeville Airport
Hanalei, Hawaii, United States

Public forecast

Using degrees Fahrenheit for public forecast. Weather courtesy of forecast.io.

METAR (pilot weather report)

Closest report is Lihue Airport, 15.2 nm (28.2 km) SSE. Retrieved 2019/05/24 17:53 UTC (28 minutes ago):

PHLI 241753Z 06007KT 10SM SCT016 27/22 A3012

TAF (pilot weather forecast)

Closest forecast is Lihue Airport, 15.2 nm (28.2 km) SSE. Retrieved 2019/05/24 18:42 UTC (0 seconds ago):

TAF PHLI 241738Z 2418/2518 07009KT P6SM FEW015 SCT040